Time;durP1;ratioP1;P1;durP2;ratioP2;P2;SDS_P1;SDS_P2;PMS_P1;PMS_P2;Temp;Humidity;BMP_temperature;BMP_pressure;BME280_temperature;BME280_humidity;BME280_pressure;Samples;Min_cycle;Max_cycle;Signal;HPM_P1;HPM_P2
2022/01/17 00:00:16;;;;;;;33.92;15.38;;;;;;;0.14;77.31;95204.16;5046060;28;20053;-60
2022/01/17 00:02:46;;;;;;;34.67;14.93;;;;;;;0.19;77.36;95207.50;5029307;28;20505;-60
2022/01/17 00:05:13;;;;;;;34.28;14.95;;;;;;;0.34;76.56;95210.84;5030564;28;20499;-60
2022/01/17 00:07:40;;;;;;;32.20;14.73;;;;;;;0.42;76.91;95209.25;5029108;28;20045;-60
2022/01/17 00:10:08;;;;;;;31.92;14.70;;;;;;;0.51;76.29;95212.75;5014812;28;20049;-59
2022/01/17 00:12:38;;;;;;;39.15;17.10;;;;;;;0.50;75.87;95220.03;5010745;28;20052;-60
2022/01/17 00:15:13;;;;;;;36.37;15.60;;;;;;;0.52;76.02;95217.81;5010496;28;20050;-61
2022/01/17 00:17:43;;;;;;;31.55;14.15;;;;;;;0.48;75.58;95216.06;5024768;28;20050;-61
2022/01/17 00:20:11;;;;;;;30.25;14.73;;;;;;;0.47;75.64;95214.50;5010727;28;20069;-60
2022/01/17 00:22:41;;;;;;;29.55;14.02;;;;;;;0.19;77.11;95215.59;5010807;28;20052;-60
2022/01/17 00:25:08;;;;;;;30.42;14.45;;;;;;;-0.02;78.18;95222.72;4997187;28;20050;-60
2022/01/17 00:27:35;;;;;;;30.97;13.57;;;;;;;0.33;76.89;95218.16;5007402;28;20054;-60
2022/01/17 00:30:04;;;;;;;25.52;11.43;;;;;;;0.44;76.36;95228.63;5010736;28;20054;-61
2022/01/17 00:32:31;;;;;;;23.42;10.75;;;;;;;0.50;75.89;95219.25;5009795;28;20693;-60
2022/01/17 00:34:58;;;;;;;19.60;8.70;;;;;;;0.60;75.95;95229.72;5042481;28;20176;-61
2022/01/17 00:37:25;;;;;;;23.23;10.40;;;;;;;0.56;76.12;95226.88;5011040;28;20056;-60
2022/01/17 00:39:52;;;;;;;20.90;9.77;;;;;;;0.67;75.84;95218.44;5009816;28;20052;-64
2022/01/17 00:42:18;;;;;;;22.67;10.48;;;;;;;0.79;75.66;95229.41;5010808;28;20046;-60
2022/01/17 00:44:48;;;;;;;24.02;11.32;;;;;;;0.69;76.12;95222.41;5010326;28;20097;-61
2022/01/17 00:47:15;;;;;;;27.30;12.68;;;;;;;0.57;76.82;95228.47;5010573;28;20042;-60
2022/01/17 00:49:42;;;;;;;29.50;12.88;;;;;;;0.46;77.31;95218.28;5010142;28;20046;-60
2022/01/17 00:52:08;;;;;;;31.10;15.00;;;;;;;0.13;78.71;95214.16;5010519;28;20068;-61
2022/01/17 00:54:35;;;;;;;32.58;15.80;;;;;;;0.13;78.69;95218.78;5010233;28;20050;-60
2022/01/17 00:57:02;;;;;;;34.97;15.73;;;;;;;-0.04;79.31;95222.25;5010162;28;20045;-61
2022/01/17 00:59:30;;;;;;;34.13;15.15;;;;;;;0.10;78.44;95227.50;5025484;28;20056;-61
2022/01/17 01:01:57;;;;;;;30.50;14.63;;;;;;;0.10;78.65;95222.91;5009439;28;20057;-60
2022/01/17 01:04:24;;;;;;;32.03;15.63;;;;;;;-0.26;80.04;95223.19;5010107;28;20060;-60
2022/01/17 01:06:51;;;;;;;31.60;14.80;;;;;;;-0.36;81.39;95231.53;5009541;28;20499;-60
2022/01/17 01:09:18;;;;;;;36.00;16.98;;;;;;;-0.59;82.27;95225.44;5008832;28;20052;-61
2022/01/17 01:11:45;;;;;;;38.03;15.65;;;;;;;-0.54;82.38;95223.41;5009956;28;20056;-60
2022/01/17 01:14:11;;;;;;;34.38;15.43;;;;;;;-0.50;82.43;95229.78;5009823;28;20053;-60
2022/01/17 01:16:38;;;;;;;31.73;14.73;;;;;;;-0.56;82.64;95225.63;5009353;28;20052;-60
2022/01/17 01:27:46;;;;;;;28.23;13.00;;;;;;;-0.34;82.89;95227.44;5022213;28;20681;-61
2022/01/17 01:30:16;;;;;;;29.03;12.57;;;;;;;-0.33;82.51;95223.63;5009388;28;20056;-60
2022/01/17 01:32:48;;;;;;;28.95;13.18;;;;;;;-0.16;82.35;95230.97;5007866;28;20056;-60
2022/01/17 01:35:18;;;;;;;29.88;13.45;;;;;;;-0.34;82.66;95227.44;5009511;28;20057;-60
2022/01/17 01:37:47;;;;;;;24.00;11.55;;;;;;;-0.46;83.16;95227.25;5009454;28;20038;-61
2022/01/17 01:40:16;;;;;;;27.25;12.15;;;;;;;-0.24;82.50;95220.97;5009297;28;20042;-60
2022/01/17 01:42:45;;;;;;;24.83;11.50;;;;;;;-0.19;82.22;95237.00;5008892;28;20056;-61
2022/01/17 01:45:13;;;;;;;24.13;11.35;;;;;;;-0.40;83.33;95239.47;5007811;28;20052;-60
2022/01/17 01:47:41;;;;;;;25.73;11.40;;;;;;;-0.26;83.03;95240.16;5008979;28;20445;-61
2022/01/17 01:50:10;;;;;;;24.13;11.52;;;;;;;-0.10;82.27;95237.81;5009040;28;20049;-61
2022/01/17 01:52:41;;;;;;;24.67;11.18;;;;;;;-0.16;82.22;95238.25;5009004;28;20053;-61
2022/01/17 01:55:11;;;;;;;23.80;10.47;;;;;;;-0.10;82.00;95231.59;5009433;28;20157;-61
2022/01/17 01:57:39;;;;;;;23.85;10.63;;;;;;;-0.01;81.37;95240.50;5008962;28;20045;-60
2022/01/17 02:00:07;;;;;;;20.48;9.95;;;;;;;0.06;80.85;95234.63;5008733;28;20050;-60
2022/01/17 02:02:35;;;;;;;23.17;10.40;;;;;;;0.15;80.95;95238.94;5008554;28;20049;-58
2022/01/17 02:05:04;;;;;;;22.35;10.30;;;;;;;0.14;80.86;95233.84;5008798;28;20438;-61
2022/01/17 02:07:32;;;;;;;22.03;10.37;;;;;;;0.06;80.91;95232.75;5009128;28;20057;-62
2022/01/17 02:09:59;;;;;;;21.45;10.05;;;;;;;0.08;80.80;95229.72;5007818;28;20084;-60
2022/01/17 02:12:28;;;;;;;23.30;10.90;;;;;;;0.08;80.80;95227.84;5009663;28;20056;-60
2022/01/17 02:14:56;;;;;;;23.50;10.43;;;;;;;0.15;80.28;95225.44;5008385;28;20050;-60
2022/01/17 02:17:24;;;;;;;22.35;10.95;;;;;;;0.22;80.42;95229.56;5039990;28;20041;-61
2022/01/17 02:20:07;;;;;;;19.50;9.47;;;;;;;0.23;80.39;95231.97;5008432;28;20571;-61
2022/01/17 02:22:35;;;;;;;21.15;9.25;;;;;;;0.25;80.44;95228.94;5007559;28;20430;-60
2022/01/17 02:25:02;;;;;;;21.80;10.88;;;;;;;0.16;80.38;95223.53;5008706;28;20046;-60
2022/01/17 02:27:29;;;;;;;20.48;10.23;;;;;;;0.11;80.68;95212.91;5009106;28;20068;-61
2022/01/17 02:29:55;;;;;;;21.95;10.95;;;;;;;0.13;80.10;95211.47;5008672;28;20064;-60
2022/01/17 02:32:22;;;;;;;22.97;10.17;;;;;;;-0.02;81.06;95203.81;5007437;28;20034;-61
2022/01/17 02:34:49;;;;;;;19.73;9.05;;;;;;;-0.09;80.87;95198.91;5038173;28;20064;-61
2022/01/17 02:37:18;;;;;;;20.15;9.85;;;;;;;-0.02;80.38;95198.44;5009450;28;20045;-60
2022/01/17 02:39:45;;;;;;;18.88;9.30;;;;;;;-0.01;80.64;95192.72;5007240;28;20034;-61
2022/01/17 02:42:16;;;;;;;18.40;8.63;;;;;;;-0.12;80.85;95194.16;5008444;28;20050;-61
2022/01/17 02:44:45;;;;;;;19.87;9.10;;;;;;;-0.07;80.44;95196.69;5008141;28;20375;-61
2022/01/17 02:47:15;;;;;;;19.05;9.05;;;;;;;-0.12;80.86;95199.56;5008547;28;20053;-60
2022/01/17 02:49:42;;;;;;;18.15;8.43;;;;;;;-0.12;80.63;95202.25;5008283;28;20041;-61
2022/01/17 02:52:08;;;;;;;21.02;9.02;;;;;;;-0.17;81.13;95201.59;5008520;28;20057;-60
2022/01/17 02:54:36;;;;;;;17.20;8.38;;;;;;;-0.18;81.06;95190.03;5007280;28;20050;-60
2022/01/17 02:57:03;;;;;;;18.23;8.80;;;;;;;-0.21;81.01;95198.72;5008732;28;20072;-60
2022/01/17 02:59:31;;;;;;;17.92;8.38;;;;;;;-0.29;80.86;95199.53;5007556;28;20432;-60
2022/01/17 03:01:59;;;;;;;19.05;9.40;;;;;;;-0.34;81.15;95203.16;5008364;28;20058;-61
2022/01/17 03:04:28;;;;;;;18.33;8.80;;;;;;;-0.39;80.87;95197.91;5007556;28;20487;-60
2022/01/17 03:06:55;;;;;;;16.45;8.25;;;;;;;-0.39;81.16;95202.50;5008249;28;20045;-60
2022/01/17 03:09:23;;;;;;;17.20;7.93;;;;;;;-0.44;80.97;95192.69;5039936;28;20058;-61
2022/01/17 03:11:50;;;;;;;17.15;7.95;;;;;;;-0.57;81.20;95193.59;5008126;28;20637;-60
2022/01/17 03:14:17;;;;;;;15.43;7.90;;;;;;;-0.67;80.92;95197.34;5008374;28;20054;-60
2022/01/17 03:16:47;;;;;;;15.25;6.93;;;;;;;-0.70;81.09;95198.78;5008045;28;20042;-60
2022/01/17 03:19:14;;;;;;;14.23;6.55;;;;;;;-0.77;81.51;95203.81;5008148;28;20045;-61
2022/01/17 03:21:41;;;;;;;15.67;7.00;;;;;;;-0.88;82.07;95206.00;5007987;28;20097;-61
2022/01/17 03:24:07;;;;;;;13.35;6.07;;;;;;;-0.94;82.06;95209.16;5008199;28;20046;-60
2022/01/17 03:26:34;;;;;;;14.50;6.85;;;;;;;-0.99;82.16;95214.66;5006932;28;20041;-58
2022/01/17 03:29:03;;;;;;;13.88;6.68;;;;;;;-0.93;81.87;95216.91;5010490;28;20053;-63
2022/01/17 03:31:30;;;;;;;13.88;6.85;;;;;;;-0.93;81.90;95219.59;5012013;28;20068;-60
2022/01/17 03:33:57;;;;;;;14.60;6.13;;;;;;;-0.99;81.88;95214.66;5011623;28;20446;-60
2022/01/17 03:36:24;;;;;;;14.30;6.63;;;;;;;-1.14;82.01;95213.97;5011905;28;20548;-60
2022/01/17 03:38:55;;;;;;;13.85;6.28;;;;;;;-1.18;82.48;95225.66;5011439;28;20108;-61
2022/01/17 03:41:23;;;;;;;12.57;5.60;;;;;;;-1.10;82.38;95220.31;5011657;28;20042;-60
2022/01/17 03:43:50;;;;;;;12.18;6.18;;;;;;;-1.03;82.07;95222.56;5010991;28;20161;-61
2022/01/17 03:46:17;;;;;;;14.40;6.40;;;;;;;-0.96;82.08;95214.84;5011684;28;20060;-61
2022/01/17 03:48:44;;;;;;;13.48;6.28;;;;;;;-0.94;81.98;95215.34;5011369;28;20107;-61
2022/01/17 03:51:10;;;;;;;13.70;6.47;;;;;;;-0.88;82.01;95205.22;5011661;28;20061;-61
2022/01/17 03:53:37;;;;;;;15.75;7.18;;;;;;;-0.76;81.69;95201.94;5011295;28;20052;-60
2022/01/17 03:56:04;;;;;;;35.58;13.23;;;;;;;-0.66;81.80;95207.03;5010141;28;20064;-60
2022/01/17 03:58:31;;;;;;;22.13;9.80;;;;;;;-0.60;81.61;95213.88;5011729;28;20046;-61
2022/01/17 04:00:58;;;;;;;16.38;7.72;;;;;;;-0.59;81.66;95209.28;5026155;28;20068;-60
2022/01/17 04:03:26;;;;;;;15.35;7.15;;;;;;;-0.53;80.96;95203.41;5011147;28;20456;-60
2022/01/17 04:05:54;;;;;;;15.30;6.63;;;;;;;-0.54;81.02;95206.44;5010795;28;20084;-60
2022/01/17 04:08:22;;;;;;;20.25;8.70;;;;;;;-0.55;81.66;95191.38;5011168;28;20115;-60
2022/01/17 04:10:48;;;;;;;20.20;8.47;;;;;;;-0.54;81.53;95191.06;5010708;28;20056;-60
2022/01/17 04:13:16;;;;;;;17.48;7.80;;;;;;;-0.57;81.61;95193.59;5010933;28;20053;-61
2022/01/17 04:15:42;;;;;;;17.92;8.38;;;;;;;-0.50;81.82;95192.03;5010330;28;20042;-61
2022/01/17 04:18:10;;;;;;;17.52;7.75;;;;;;;-0.56;81.93;95181.69;5010966;28;20103;-61
2022/01/17 04:20:39;;;;;;;19.42;9.10;;;;;;;-0.47;81.41;95177.91;5042327;28;20129;-61
2022/01/17 04:23:09;;;;;;;18.13;8.70;;;;;;;-0.64;82.44;95185.97;5009509;28;20045;-61
2022/01/17 04:25:39;;;;;;;18.95;8.68;;;;;;;-0.66;82.62;95188.97;5010651;28;20069;-61
2022/01/17 04:28:07;;;;;;;19.58;9.75;;;;;;;-0.84;83.53;95193.50;5009174;28;20042;-62
2022/01/17 04:30:35;;;;;;;21.08;9.27;;;;;;;-0.98;84.51;95203.59;5010351;28;20050;-60
2022/01/17 04:33:03;;;;;;;20.95;9.93;;;;;;;-0.93;84.48;95202.66;5010803;28;20042;-60
2022/01/17 04:35:30;;;;;;;19.13;9.53;;;;;;;-0.78;83.45;95193.38;5010533;28;20048;-60
2022/01/17 04:38:04;;;;;;;19.75;9.30;;;;;;;-0.68;83.27;95198.47;5010209;28;20558;-61
2022/01/17 04:40:39;;;;;;;29.92;11.68;;;;;;;-0.66;82.91;95215.13;5010145;28;20034;-60
2022/01/17 04:43:33;;;;;;;47.45;17.30;;;;;;;-0.95;84.20;95212.94;5009677;28;20841;-64
2022/01/17 04:45:59;;;;;;;46.13;17.70;;;;;;;-0.74;83.69;95224.78;5021588;28;20594;-61
2022/01/17 04:48:26;;;;;;;50.10;18.87;;;;;;;-0.64;83.26;95229.09;5010418;28;20221;-60
2022/01/17 04:50:53;;;;;;;30.48;14.05;;;;;;;-0.62;83.50;95230.38;5008904;28;20414;-60
2022/01/17 04:53:21;;;;;;;24.92;11.82;;;;;;;-0.59;83.72;95236.25;5010346;28;20042;-60
2022/01/17 04:55:49;;;;;;;19.70;9.18;;;;;;;-0.52;83.61;95248.16;5009967;28;20046;-61
2022/01/17 04:58:16;;;;;;;19.30;9.00;;;;;;;-0.64;83.94;95247.97;5010220;28;20046;-60
2022/01/17 05:00:47;;;;;;;20.77;9.13;;;;;;;-0.70;84.39;95241.13;5008431;28;20041;-60
2022/01/17 05:03:20;;;;;;;19.33;9.55;;;;;;;-0.77;84.38;95249.63;5010343;28;20394;-60
2022/01/17 05:05:52;;;;;;;61.75;26.17;;;;;;;-0.56;83.94;95246.38;5009541;28;20482;-60
2022/01/17 05:08:19;;;;;;;25.95;11.73;;;;;;;-0.47;83.54;95237.22;5009791;28;20042;-61
2022/01/17 05:10:50;;;;;;;24.77;11.77;;;;;;;-0.37;83.46;95243.44;5008121;28;20045;-61
2022/01/17 05:13:32;;;;;;;20.80;9.23;;;;;;;-0.36;83.35;95239.63;5011516;28;20052;-60
2022/01/17 05:16:12;;;;;;;24.17;10.35;;;;;;;-0.71;84.49;95245.69;5009467;28;20049;-60
2022/01/17 05:21:06;;;;;;;18.85;8.85;;;;;;;-0.69;84.65;95254.28;5009945;28;20046;-61
2022/01/17 05:23:33;;;;;;;19.42;9.50;;;;;;;-0.55;84.20;95243.38;5009888;28;20052;-61
2022/01/17 05:26:00;;;;;;;18.97;9.17;;;;;;;-0.71;84.66;95247.59;5008789;28;21408;-61
2022/01/17 05:28:26;;;;;;;27.10;11.98;;;;;;;-0.77;84.89;95241.56;5008073;28;20060;-60
2022/01/17 05:30:53;;;;;;;27.65;12.68;;;;;;;-0.63;84.09;95250.31;5008930;28;20046;-61
2022/01/17 05:33:20;;;;;;;25.10;12.40;;;;;;;-0.65;84.82;95251.75;5009190;28;20077;-61
2022/01/17 05:35:47;;;;;;;24.25;12.13;;;;;;;-0.46;83.75;95252.31;5007633;28;20129;-61
2022/01/17 05:38:17;;;;;;;27.83;14.20;;;;;;;-0.45;83.60;95253.88;5009382;28;20053;-60
2022/01/17 05:40:43;;;;;;;24.77;12.07;;;;;;;-0.46;84.11;95255.00;5008845;28;20045;-61
2022/01/17 05:43:10;;;;;;;25.55;12.50;;;;;;;-0.52;84.35;95274.34;5008717;28;20522;-62
2022/01/17 05:45:37;;;;;;;22.90;11.95;;;;;;;-0.36;83.93;95277.38;5008817;28;20065;-60
2022/01/17 05:48:04;;;;;;;24.45;12.20;;;;;;;-0.28;83.42;95271.22;5009407;28;20046;-61
2022/01/17 05:50:31;;;;;;;23.23;10.83;;;;;;;-0.22;83.38;95265.41;5008514;28;20056;-61
2022/01/17 05:52:58;;;;;;;24.92;12.38;;;;;;;-0.27;83.79;95256.66;5007438;28;20052;-60
2022/01/17 05:55:25;;;;;;;33.13;15.18;;;;;;;-0.39;84.06;95257.25;5007490;28;20041;-61
2022/01/17 05:57:51;;;;;;;25.50;12.07;;;;;;;-0.31;83.82;95253.78;5010916;28;20506;-61
2022/01/17 06:00:18;;;;;;;23.85;11.02;;;;;;;-0.24;83.55;95246.03;5008162;28;20080;-60
2022/01/17 06:02:45;;;;;;;23.03;10.80;;;;;;;-0.29;83.73;95245.38;5004021;28;20053;-60
2022/01/17 06:05:15;;;;;;;21.90;10.57;;;;;;;-0.12;83.12;95250.00;5006530;28;20061;-61
2022/01/17 06:07:42;;;;;;;26.60;12.75;;;;;;;-0.17;83.47;95259.06;5029085;28;20053;-61
2022/01/17 06:10:08;;;;;;;47.83;19.67;;;;;;;-0.14;83.78;95266.53;5044139;28;20049;-61
2022/01/17 06:12:35;;;;;;;36.53;14.77;;;;;;;-0.06;83.24;95268.44;5008222;28;20060;-61
2022/01/17 06:15:03;;;;;;;34.93;15.07;;;;;;;-0.05;83.31;95271.94;5008234;28;20091;-60
2022/01/17 06:17:30;;;;;;;30.88;12.75;;;;;;;-0.05;83.40;95266.53;5008689;28;20379;-60
2022/01/17 06:19:57;;;;;;;33.78;13.02;;;;;;;-0.08;83.57;95267.16;5008446;28;20050;-60
2022/01/17 06:22:24;;;;;;;31.02;13.35;;;;;;;-0.03;82.89;95272.41;5008654;28;20064;-60
2022/01/17 06:24:51;;;;;;;29.60;11.60;;;;;;;0.03;82.82;95267.66;5008464;28;20050;-61
2022/01/17 06:27:19;;;;;;;33.47;14.50;;;;;;;0.07;82.91;95271.34;5008648;28;20042;-61
2022/01/17 06:29:45;;;;;;;33.13;15.40;;;;;;;-0.11;82.57;95271.28;5008267;28;20038;-61
2022/01/17 06:32:12;;;;;;;29.02;13.70;;;;;;;-0.20;83.28;95257.00;5008814;28;20133;-64
2022/01/17 06:34:54;;;;;;;34.13;16.15;;;;;;;-0.17;83.48;95256.34;5008420;28;20052;-60
2022/01/17 06:37:21;;;;;;;31.23;14.30;;;;;;;-0.10;83.16;95253.19;5039896;28;20042;-60
2022/01/17 06:39:51;;;;;;;24.77;11.57;;;;;;;-0.23;84.25;95260.31;5007907;28;20052;-61
2022/01/17 06:42:18;;;;;;;23.95;12.20;;;;;;;-0.33;84.61;95258.69;5008431;28;20042;-61
2022/01/17 06:44:45;;;;;;;31.45;15.52;;;;;;;-0.35;85.27;95270.91;5007903;28;20049;-61
2022/01/17 06:47:12;;;;;;;34.00;15.23;;;;;;;-0.29;85.00;95269.66;5008601;28;20065;-60
2022/01/17 06:49:38;;;;;;;30.50;14.93;;;;;;;-0.18;84.06;95279.06;5006740;28;20088;-60
2022/01/17 06:52:05;;;;;;;32.87;15.90;;;;;;;-0.19;83.91;95287.47;5008769;28;20352;-60
2022/01/17 06:54:32;;;;;;;32.05;15.57;;;;;;;-0.22;84.16;95300.47;5008042;28;20155;-60
2022/01/17 06:56:59;;;;;;;27.23;14.10;;;;;;;-0.24;84.11;95283.00;5006048;28;21848;-60
2022/01/17 06:59:26;;;;;;;31.55;14.23;;;;;;;-0.12;83.68;95288.59;5007698;28;20049;-60
2022/01/17 07:01:53;;;;;;;33.88;14.07;;;;;;;-0.07;83.31;95282.25;5008252;28;20046;-60
2022/01/17 07:04:19;;;;;;;31.80;14.83;;;;;;;-0.03;83.61;95291.31;5011989;28;20068;-60
2022/01/17 07:06:46;;;;;;;32.22;14.43;;;;;;;-0.01;83.57;95297.97;5012021;28;20053;-60
2022/01/17 07:09:16;;;;;;;30.92;14.68;;;;;;;-0.02;83.51;95304.50;5011942;28;20037;-60
2022/01/17 07:11:43;;;;;;;28.50;13.07;;;;;;;-0.10;83.75;95289.06;5043526;28;20038;-60
2022/01/17 07:14:11;;;;;;;25.88;12.90;;;;;;;-0.05;83.70;95307.81;5010643;28;20048;-60
2022/01/17 07:16:40;;;;;;;22.83;11.67;;;;;;;-0.01;83.57;95310.69;5010938;28;20046;-60
2022/01/17 07:19:08;;;;;;;21.30;11.00;;;;;;;-0.03;83.98;95319.09;5014260;28;20048;-62
2022/01/17 07:21:36;;;;;;;22.45;11.55;;;;;;;0.09;83.54;95333.88;5019970;28;20217;-60
2022/01/17 07:24:04;;;;;;;23.50;11.95;;;;;;;-0.07;83.74;95342.41;5019327;28;20516;-62
2022/01/17 07:26:30;;;;;;;28.77;13.93;;;;;;;-0.02;83.93;95355.78;4991867;28;20426;-61
2022/01/17 07:28:57;;;;;;;28.67;14.07;;;;;;;0.11;83.27;95364.06;4996924;28;20061;-61
2022/01/17 07:31:24;;;;;;;27.75;13.98;;;;;;;0.12;83.65;95377.25;5012362;28;20056;-61
2022/01/17 07:33:56;;;;;;;31.23;14.55;;;;;;;0.13;82.94;95403.13;5010712;28;20041;-61
2022/01/17 07:36:28;;;;;;;32.47;14.45;;;;;;;0.19;83.10;95398.38;5011246;28;20046;-61
2022/01/17 07:38:56;;;;;;;27.45;13.43;;;;;;;0.33;83.06;95387.47;5011459;28;20037;-62
2022/01/17 07:41:22;;;;;;;25.73;12.60;;;;;;;0.39;82.30;95378.13;5011643;28;20061;-62
2022/01/17 07:44:00;;;;;;;22.58;11.27;;;;;;;0.45;82.07;95374.16;5011125;28;20050;-61
2022/01/17 07:46:47;;;;;;;21.70;9.90;;;;;;;0.37;82.01;95367.63;5042366;28;20076;-61
2022/01/17 07:49:21;;;;;;;18.95;9.30;;;;;;;0.55;81.90;95371.16;5010208;28;20189;-61
2022/01/17 07:51:58;;;;;;;18.55;9.50;;;;;;;0.63;81.79;95366.09;5010580;28;20064;-61
2022/01/17 07:54:27;;;;;;;21.40;10.30;;;;;;;0.72;81.48;95364.97;5042985;28;20594;-61
2022/01/17 07:56:56;;;;;;;17.23;8.35;;;;;;;0.67;80.96;95381.34;5011039;28;20064;-61
2022/01/17 07:59:23;;;;;;;15.88;8.18;;;;;;;0.65;81.69;95380.84;5011409;28;20060;-61
2022/01/17 08:01:50;;;;;;;18.55;9.23;;;;;;;0.53;82.29;95386.09;5026058;28;20076;-61
2022/01/17 08:04:18;;;;;;;18.38;8.63;;;;;;;0.70;81.77;95388.00;5011523;28;20266;-62
2022/01/17 08:06:46;;;;;;;18.13;8.80;;;;;;;0.97;80.88;95376.91;5009598;28;20045;-61
2022/01/17 08:09:24;;;;;;;18.48;8.60;;;;;;;1.13;80.21;95376.44;5011137;28;20042;-61
2022/01/17 08:12:03;;;;;;;19.20;9.13;;;;;;;1.06;79.93;95374.19;5010504;28;20648;-61
2022/01/17 08:14:30;;;;;;;15.40;7.55;;;;;;;0.93;80.63;95381.34;5009955;28;20054;-61
2022/01/17 08:16:57;;;;;;;20.27;9.70;;;;;;;0.71;81.14;95386.91;5010936;28;20096;-61
2022/01/17 08:19:25;;;;;;;23.77;11.50;;;;;;;0.76;80.85;95400.25;5009845;28;20495;-61
2022/01/17 08:22:02;;;;;;;21.90;10.38;;;;;;;0.43;82.98;95403.38;5010771;28;20049;-61
2022/01/17 08:24:29;;;;;;;21.77;11.05;;;;;;;0.63;81.97;95417.41;5011044;28;20441;-61
2022/01/17 08:26:56;;;;;;;21.77;9.70;;;;;;;0.83;82.05;95433.03;5010569;28;20371;-61
2022/01/17 08:29:25;;;;;;;20.15;9.75;;;;;;;0.74;82.10;95445.72;5010676;28;20103;-61
2022/01/17 08:31:52;;;;;;;19.90;10.07;;;;;;;0.55;83.50;95440.59;5010509;28;20057;-61
2022/01/17 08:34:19;;;;;;;17.48;9.25;;;;;;;0.92;82.75;95427.63;5010729;28;20046;-61
2022/01/17 08:36:47;;;;;;;17.38;9.07;;;;;;;1.26;81.65;95416.00;5010044;28;20053;-61
2022/01/17 08:39:14;;;;;;;17.30;8.88;;;;;;;1.52;80.75;95412.50;5010743;28;20052;-62
2022/01/17 08:41:42;;;;;;;20.50;10.23;;;;;;;1.45;80.82;95402.16;5010089;28;20118;-61
2022/01/17 08:44:12;;;;;;;17.70;9.30;;;;;;;1.82;79.89;95383.63;5010341;28;20046;-62
2022/01/17 08:46:40;;;;;;;18.85;8.98;;;;;;;1.74;79.33;95368.97;5010170;28;20061;-61
2022/01/17 08:49:07;;;;;;;16.95;7.93;;;;;;;2.08;79.10;95361.84;5010713;28;20044;-61
2022/01/17 08:51:34;;;;;;;15.23;7.63;;;;;;;2.55;77.24;95355.53;5010442;28;20056;-61
2022/01/17 08:54:00;;;;;;;7.95;4.50;;;;;;;2.77;76.96;95351.72;5009608;28;20771;-62
2022/01/17 08:56:29;;;;;;;8.23;4.37;;;;;;;2.77;76.73;95363.34;5008975;28;20491;-62
2022/01/17 08:58:58;;;;;;;8.68;4.30;;;;;;;2.85;76.56;95367.13;5009700;28;20509;-61
2022/01/17 09:01:25;;;;;;;8.68;4.60;;;;;;;2.93;76.78;95366.28;5009827;28;20050;-62
2022/01/17 09:03:52;;;;;;;9.18;4.40;;;;;;;2.95;77.32;95379.50;5009684;28;20053;-62
2022/01/17 09:06:19;;;;;;;7.25;3.88;;;;;;;3.22;75.99;95397.19;5010184;28;20388;-62
2022/01/17 09:08:46;;;;;;;7.50;4.20;;;;;;;3.21;75.85;95401.00;5009849;28;20095;-62
2022/01/17 09:11:13;;;;;;;8.27;4.00;;;;;;;3.06;75.88;95417.88;5010338;28;20573;-61
2022/01/17 09:13:40;;;;;;;9.32;4.20;;;;;;;3.04;76.27;95418.22;5009545;28;20060;-61
2022/01/17 09:16:08;;;;;;;7.00;3.78;;;;;;;2.91;77.29;95413.84;5010083;28;20171;-61
2022/01/17 09:18:36;;;;;;;11.02;5.47;;;;;;;3.07;76.85;95417.53;5009450;28;20120;-61
2022/01/17 09:21:03;;;;;;;9.10;4.40;;;;;;;3.02;76.98;95425.06;5010071;28;20056;-61
2022/01/17 09:23:29;;;;;;;7.20;3.97;;;;;;;3.08;76.77;95429.19;5009971;28;20384;-62
2022/01/17 09:25:56;;;;;;;7.03;3.72;;;;;;;2.98;77.68;95431.19;5009501;28;20045;-61
2022/01/17 09:28:23;;;;;;;9.77;4.22;;;;;;;2.94;77.74;95427.53;5009662;28;20046;-61
2022/01/17 09:30:51;;;;;;;7.32;4.10;;;;;;;3.00;77.81;95439.78;5009503;28;20084;-61
2022/01/17 09:33:18;;;;;;;7.43;4.30;;;;;;;2.92;77.91;95459.59;5009804;28;20050;-62
2022/01/17 09:35:45;;;;;;;6.45;3.70;;;;;;;2.82;78.34;95473.53;5023763;28;20671;-61
2022/01/17 09:38:12;;;;;;;8.68;4.25;;;;;;;3.06;77.90;95481.06;5009468;28;20062;-62
2022/01/17 09:40:39;;;;;;;7.03;3.42;;;;;;;3.04;77.13;95482.50;5008770;28;20046;-62
2022/01/17 09:43:26;;;;;;;7.35;3.65;;;;;;;2.96;78.28;95476.81;5008901;28;20056;-61
2022/01/17 09:45:54;;;;;;;6.70;3.70;;;;;;;2.96;77.68;95478.75;5009289;28;20049;-61
2022/01/17 09:48:23;;;;;;;7.90;4.60;;;;;;;2.62;79.10;95479.69;5009558;28;20050;-62
2022/01/17 09:51:05;;;;;;;7.75;4.03;;;;;;;2.67;79.26;95476.81;5007571;28;20054;-61
2022/01/17 09:53:38;;;;;;;7.05;4.50;;;;;;;2.13;81.02;95467.31;5009067;28;20042;-61
2022/01/17 09:56:09;;;;;;;7.63;3.92;;;;;;;2.40;80.44;95468.78;5040312;28;20057;-61
2022/01/17 09:58:40;;;;;;;9.57;5.23;;;;;;;2.55;79.89;95467.44;5008476;28;20046;-61
2022/01/17 10:01:08;;;;;;;10.38;5.88;;;;;;;2.33;80.82;95484.75;5010898;28;20052;-61
2022/01/17 10:03:39;;;;;;;9.45;5.70;;;;;;;2.26;81.24;95481.75;5029051;28;20094;-61
2022/01/17 10:06:06;;;;;;;8.52;4.40;;;;;;;2.19;81.44;95474.13;5028844;28;20046;-61
2022/01/17 10:08:33;;;;;;;8.05;3.90;;;;;;;2.58;80.21;95479.56;5025767;28;20048;-61
2022/01/17 10:11:01;;;;;;;6.60;3.23;;;;;;;2.77;78.45;95476.44;5008687;28;20034;-62
2022/01/17 10:13:34;;;;;;;12.07;9.20;;;;;;;2.99;77.90;95472.63;5007343;28;20049;-59
2022/01/17 10:16:19;;;;;;;6.68;3.92;;;;;;;2.85;78.55;95466.66;5008206;28;21743;-61
2022/01/17 10:19:02;;;;;;;8.23;4.20;;;;;;;3.13;77.39;95467.75;5008670;28;20050;-62
2022/01/17 10:21:47;;;;;;;7.45;3.83;;;;;;;3.56;76.81;95450.38;5009020;28;20046;-61
2022/01/17 10:24:40;;;;;;;6.80;3.67;;;;;;;3.82;74.63;95451.25;5040216;28;20072;-62
2022/01/17 10:35:38;;;;;;;4.90;2.55;;;;;;;4.41;71.69;95431.91;5007082;28;20056;-59
2022/01/17 10:38:18;;;;;;;4.30;2.10;;;;;;;4.39;70.09;95428.72;5012459;28;20042;-62
2022/01/17 10:40:56;;;;;;;4.20;2.10;;;;;;;5.09;67.68;95414.16;5014636;28;20513;-62
2022/01/17 10:43:25;;;;;;;4.30;2.40;;;;;;;4.38;69.96;95419.75;5015603;28;20056;-62
2022/01/17 10:45:54;;;;;;;3.70;1.80;;;;;;;4.72;68.20;95425.91;5014892;28;20482;-62
2022/01/17 10:48:28;;;;;;;4.18;2.00;;;;;;;5.03;67.13;95416.34;5015402;28;20041;-62
2022/01/17 10:50:55;;;;;;;4.00;2.00;;;;;;;5.40;66.66;95408.09;5014938;28;20041;-62
2022/01/17 10:53:22;;;;;;;4.70;2.50;;;;;;;5.83;65.33;95403.03;5015298;28;20099;-62
2022/01/17 10:55:54;;;;;;;3.90;2.00;;;;;;;5.56;64.31;95408.94;5029527;28;20053;-62
2022/01/17 10:58:31;;;;;;;3.90;2.10;;;;;;;5.54;64.38;95410.44;5015195;28;20042;-59
2022/01/17 11:01:01;;;;;;;6.78;2.67;;;;;;;5.93;63.93;95416.13;5014190;28;20045;-62
2022/01/17 11:03:31;;;;;;;5.77;2.80;;;;;;;5.79;63.51;95411.91;5015022;28;20577;-62
2022/01/17 11:06:07;;;;;;;5.10;2.60;;;;;;;4.66;66.22;95426.47;5013084;28;20053;-62
2022/01/17 11:08:34;;;;;;;5.05;2.40;;;;;;;4.47;66.93;95438.72;5014800;28;20046;-59
2022/01/17 11:11:05;;;;;;;4.20;2.00;;;;;;;5.35;64.87;95446.44;5014142;28;20151;-59
2022/01/17 11:13:34;;;;;;;5.63;1.98;;;;;;;5.66;63.41;95436.81;5014971;28;20038;-61
2022/01/17 11:16:04;;;;;;;3.83;1.80;;;;;;;5.34;63.88;95442.13;5013889;28;20841;-61
2022/01/17 11:18:31;;;;;;;5.13;2.35;;;;;;;5.46;63.87;95438.59;5015087;28;20060;-61
2022/01/17 11:21:11;;;;;;;4.15;2.08;;;;;;;5.72;63.02;95444.41;5046382;28;20050;-61
2022/01/17 11:23:41;;;;;;;4.10;2.00;;;;;;;5.70;62.49;95446.66;5014470;28;20061;-61
2022/01/17 11:26:10;;;;;;;10.07;3.45;;;;;;;6.12;61.88;95456.41;5015265;28;20050;-61
2022/01/17 11:28:38;;;;;;;5.37;2.43;;;;;;;6.51;60.99;95443.75;5014236;28;20049;-61
2022/01/17 11:31:11;;;;;;;4.93;2.53;;;;;;;6.05;60.92;95448.81;5014860;28;20046;-61
2022/01/17 11:33:38;;;;;;;4.32;2.05;;;;;;;5.24;63.45;95437.97;5014207;28;20049;-61
2022/01/17 11:36:05;;;;;;;6.07;2.80;;;;;;;5.35;63.93;95430.09;5014885;28;20049;-61
2022/01/17 11:38:36;;;;;;;4.63;1.90;;;;;;;5.37;63.50;95425.09;5014948;28;20048;-61
2022/01/17 11:41:04;;;;;;;10.13;5.13;;;;;;;5.15;63.98;95429.13;5013863;28;20464;-61
2022/01/17 11:43:37;;;;;;;2.90;1.45;;;;;;;5.07;64.24;95414.53;5014666;28;20046;-61
2022/01/17 11:46:19;;;;;;;7.55;3.50;;;;;;;5.13;63.83;95412.34;5013992;28;20591;-61
2022/01/17 11:49:06;;;;;;;4.18;2.08;;;;;;;4.93;64.33;95414.91;5011568;28;20058;-61
2022/01/17 11:51:44;;;;;;;5.03;1.60;;;;;;;5.65;62.84;95389.72;5011486;28;20050;-61
2022/01/17 11:54:14;;;;;;;4.67;2.50;;;;;;;5.71;63.32;95384.81;5010975;28;21214;-61